Time;durP1;ratioP1;P1;durP2;ratioP2;P2;SDS_P1;SDS_P2;PMS_P1;PMS_P2;Temp;Humidity;BMP_temperature;BMP_pressure;BME280_temperature;BME280_humidity;BME280_pressure;Samples;Min_cycle;Max_cycle;Signal;HPM_P1;HPM_P2
2023/05/09 00:00:09;;;;;;;5.22;2.55;;;14.10;99.90;;;;;;5040814;28;20032;-85
2023/05/09 00:02:36;;;;;;;3.65;2.17;;;14.10;99.90;;;;;;5059263;28;20044;-85
2023/05/09 00:05:03;;;;;;;3.45;2.20;;;14.00;99.90;;;;;;5053734;28;20041;-85
2023/05/09 00:07:30;;;;;;;4.97;2.55;;;14.00;99.90;;;;;;5051652;28;20063;-85
2023/05/09 00:09:56;;;;;;;4.15;2.83;;;14.90;99.90;;;;;;5052619;28;20053;-85
2023/05/09 00:12:22;;;;;;;3.97;3.03;;;14.20;99.90;;;;;;5052672;28;20037;-84
2023/05/09 00:14:50;;;;;;;7.07;3.00;;;14.00;99.90;;;;;;5052147;28;20098;-84
2023/05/09 00:17:17;;;;;;;3.03;2.50;;;13.90;99.90;;;;;;5053057;28;20053;-85
2023/05/09 00:19:43;;;;;;;2.65;1.88;;;14.00;99.90;;;;;;5052007;28;20051;-84
2023/05/09 00:22:11;;;;;;;11.00;3.28;;;15.20;99.90;;;;;;5052720;28;20086;-84
2023/05/09 00:24:37;;;;;;;9.07;4.60;;;13.90;99.90;;;;;;5052245;28;20049;-84
2023/05/09 00:27:03;;;;;;;2.08;1.88;;;13.90;99.90;;;;;;5052805;28;20699;-84
2023/05/09 00:29:29;;;;;;;2.55;2.30;;;13.90;99.90;;;;;;5050717;28;20049;-85
2023/05/09 00:31:55;;;;;;;5.40;2.58;;;14.70;99.90;;;;;;5051788;28;20045;-85
2023/05/09 00:34:20;;;;;;;2.22;1.75;;;13.80;99.90;;;;;;5050583;28;20560;-84
2023/05/09 00:36:46;;;;;;;5.15;1.48;;;13.90;99.90;;;;;;5052020;28;20047;-84
2023/05/09 00:39:12;;;;;;;7.10;2.53;;;13.80;99.90;;;;;;5051785;28;20475;-84
2023/05/09 00:41:38;;;;;;;2.92;1.55;;;14.80;99.90;;;;;;5051971;28;20051;-84
2023/05/09 00:44:03;;;;;;;5.50;4.07;;;14.10;99.90;;;;;;5053671;28;20044;-84
2023/05/09 00:46:29;;;;;;;6.35;3.13;;;13.80;99.90;;;;;;5053320;28;20408;-84
2023/05/09 00:48:55;;;;;;;4.15;3.20;;;14.80;99.90;;;;;;5051061;28;20041;-84
2023/05/09 00:51:22;;;;;;;14.18;2.75;;;13.80;99.90;;;;;;5049697;28;20056;-85
2023/05/09 00:53:48;;;;;;;2.95;2.33;;;13.80;99.90;;;;;;5052254;28;21146;-84
2023/05/09 00:56:14;;;;;;;0.68;0.65;;;13.80;99.90;;;;;;5055224;28;20201;-85
2023/05/09 00:58:40;;;;;;;2.83;2.13;;;13.80;99.90;;;;;;5054308;28;20053;-84
2023/05/09 01:01:07;;;;;;;1.95;1.80;;;13.80;99.90;;;;;;5055459;28;20098;-84
2023/05/09 01:03:34;;;;;;;2.53;2.03;;;13.70;99.90;;;;;;5055838;28;20147;-84
2023/05/09 01:06:15;;;;;;;3.65;1.85;;;13.70;99.90;;;;;;5054875;28;20507;-84
2023/05/09 01:08:53;;;;;;;2.13;1.65;;;13.70;99.90;;;;;;5056060;28;20048;-84
2023/05/09 01:11:50;;;;;;;3.47;2.65;;;13.70;99.90;;;;;;5056482;28;20044;-83
2023/05/09 01:14:38;;;;;;;5.93;2.70;;;13.70;99.90;;;;;;5053065;28;20051;-85
2023/05/09 01:17:19;;;;;;;2.67;2.25;;;13.80;99.90;;;;;;5051247;28;20580;-84
2023/05/09 01:19:55;;;;;;;8.98;3.88;;;13.80;99.90;;;;;;5049965;28;20049;-85
2023/05/09 01:22:28;;;;;;;2.38;1.17;;;13.80;99.90;;;;;;5049077;28;20049;-86
2023/05/09 01:24:54;;;;;;;2.92;1.33;;;13.90;99.90;;;;;;5048505;28;20495;-84
2023/05/09 01:27:43;;;;;;;2.03;1.67;;;13.80;99.90;;;;;;5048799;28;20132;-85
2023/05/09 01:30:12;;;;;;;3.03;1.40;;;13.80;99.90;;;;;;5049577;28;20059;-85
2023/05/09 01:32:39;;;;;;;1.40;1.30;;;13.80;99.90;;;;;;5048136;28;20059;-85
2023/05/09 01:35:07;;;;;;;3.72;1.52;;;13.80;99.90;;;;;;5047964;28;20080;-85
2023/05/09 01:37:34;;;;;;;2.47;2.20;;;13.80;99.90;;;;;;5047080;28;20061;-84
2023/05/09 01:40:10;;;;;;;6.53;3.15;;;13.80;99.90;;;;;;5049008;28;20053;-84
2023/05/09 01:42:46;;;;;;;;;;;13.70;99.90;;;;;;5048947;28;20037;-84
2023/05/09 01:45:13;;;;;;;4.28;2.08;;;13.70;99.90;;;;;;5051026;28;19924;-84
2023/05/09 01:47:40;;;;;;;1.27;0.95;;;13.70;99.90;;;;;;5050685;28;20407;-84
2023/05/09 01:50:08;;;;;;;4.72;3.58;;;13.80;99.90;;;;;;5042184;28;20381;-85
2023/05/09 01:52:34;;;;;;;2.83;1.30;;;13.80;99.90;;;;;;5028896;28;20046;-84
2023/05/09 01:55:02;;;;;;;4.95;2.85;;;13.80;99.90;;;;;;5045920;28;20065;-84
2023/05/09 01:57:29;;;;;;;3.25;2.08;;;13.80;99.90;;;;;;5018581;28;20479;-86
2023/05/09 01:59:57;;;;;;;1.05;0.65;;;13.80;99.90;;;;;;5049274;28;20115;-85
2023/05/09 02:02:25;;;;;;;1.13;1.02;;;13.80;99.90;;;;;;5048464;28;20144;-84
2023/05/09 02:04:52;;;;;;;2.22;1.88;;;13.80;99.90;;;;;;5048906;28;20132;-84
2023/05/09 02:07:19;;;;;;;2.33;1.60;;;13.80;99.90;;;;;;5050235;28;20041;-84
2023/05/09 02:09:46;;;;;;;2.95;2.65;;;15.10;99.90;;;;;;5049928;28;20077;-85
2023/05/09 02:12:11;;;;;;;13.30;3.50;;;14.60;99.90;;;;;;5051214;28;20041;-84
2023/05/09 02:14:37;;;;;;;7.50;2.75;;;13.80;99.90;;;;;;5050945;28;20106;-84
2023/05/09 02:17:05;;;;;;;2.72;2.05;;;13.80;99.90;;;;;;5052982;28;20044;-84
2023/05/09 02:19:33;;;;;;;9.98;3.40;;;13.80;99.90;;;;;;5054652;28;20064;-85
2023/05/09 02:21:59;;;;;;;4.30;2.88;;;15.00;99.90;;;;;;5053490;28;20060;-83
2023/05/09 02:24:25;;;;;;;5.13;2.92;;;13.80;99.90;;;;;;5051846;28;20053;-85
2023/05/09 02:26:51;;;;;;;15.50;4.20;;;13.90;99.90;;;;;;5053052;28;20049;-84
2023/05/09 02:29:22;;;;;;;3.88;3.17;;;13.70;99.90;;;;;;5053180;28;20057;-84
2023/05/09 02:31:50;;;;;;;3.35;1.70;;;13.70;99.90;;;;;;5053115;28;20077;-83
2023/05/09 02:34:16;;;;;;;11.48;4.25;;;13.60;99.90;;;;;;5052013;28;20045;-84
2023/05/09 02:36:42;;;;;;;6.90;2.45;;;13.60;99.90;;;;;;5051487;28;20095;-84
2023/05/09 02:39:08;;;;;;;2.03;1.58;;;13.60;99.90;;;;;;5053839;28;20045;-85
2023/05/09 02:41:34;;;;;;;2.03;1.85;;;13.60;99.90;;;;;;5053160;28;20059;-84
2023/05/09 02:44:00;;;;;;;7.47;4.28;;;13.50;99.90;;;;;;5052177;28;20053;-84
2023/05/09 02:46:25;;;;;;;14.52;5.30;;;13.60;99.90;;;;;;5054967;28;20562;-84
2023/05/09 02:48:51;;;;;;;6.10;3.50;;;13.60;99.90;;;;;;5052192;28;20464;-84
2023/05/09 02:51:17;;;;;;;5.70;3.65;;;13.90;99.90;;;;;;5051923;28;20053;-84
2023/05/09 02:53:42;;;;;;;5.32;2.13;;;13.60;99.90;;;;;;5052574;28;20123;-86
2023/05/09 02:56:09;;;;;;;9.70;3.72;;;13.60;99.90;;;;;;5052095;28;20131;-84
2023/05/09 02:58:35;;;;;;;6.07;3.28;;;13.80;99.90;;;;;;5051131;28;20044;-85
2023/05/09 03:01:00;;;;;;;7.13;3.17;;;13.60;99.90;;;;;;5052407;28;20114;-85
2023/05/09 03:03:26;;;;;;;3.25;2.50;;;13.60;99.90;;;;;;5053127;28;20049;-84
2023/05/09 03:05:52;;;;;;;3.00;2.70;;;13.60;99.90;;;;;;5052433;28;20088;-84
2023/05/09 03:08:17;;;;;;;8.40;3.25;;;13.60;99.90;;;;;;5051117;28;20051;-85
2023/05/09 03:10:43;;;;;;;3.92;2.47;;;13.90;99.90;;;;;;5051237;28;20040;-85
2023/05/09 03:13:09;;;;;;;5.55;3.08;;;13.70;99.90;;;;;;5051112;28;20041;-84
2023/05/09 03:15:35;;;;;;;3.30;2.88;;;13.70;99.90;;;;;;5052430;28;20499;-84
2023/05/09 03:18:01;;;;;;;4.18;2.72;;;13.80;99.90;;;;;;5051670;28;20362;-83
2023/05/09 03:20:26;;;;;;;9.38;3.30;;;13.80;99.90;;;;;;5051595;28;20631;-85
2023/05/09 03:22:52;;;;;;;2.75;1.60;;;13.80;99.90;;;;;;5052935;28;20118;-83
2023/05/09 03:25:18;;;;;;;2.95;2.15;;;13.80;99.90;;;;;;5053613;28;20077;-84
2023/05/09 03:27:43;;;;;;;16.05;2.70;;;13.80;99.90;;;;;;5054295;28;20044;-84
2023/05/09 03:30:09;;;;;;;5.22;3.15;;;13.80;99.90;;;;;;5052801;28;20049;-84
2023/05/09 03:32:35;;;;;;;3.20;1.92;;;13.80;99.90;;;;;;5055182;28;20045;-85
2023/05/09 03:35:00;;;;;;;0.60;0.60;;;13.80;99.90;;;;;;5052776;28;20055;-85
2023/05/09 03:37:26;;;;;;;2.83;0.90;;;13.80;99.90;;;;;;5052893;28;20092;-85
2023/05/09 03:39:52;;;;;;;5.88;3.08;;;13.80;99.90;;;;;;5051846;28;20044;-84
2023/05/09 03:42:17;;;;;;;5.78;3.05;;;13.80;99.90;;;;;;5051779;28;20530;-85
2023/05/09 03:44:43;;;;;;;3.78;2.20;;;14.20;99.90;;;;;;5051534;28;20060;-83
2023/05/09 03:47:08;;;;;;;2.80;1.33;;;14.40;99.90;;;;;;5052344;28;20049;-83
2023/05/09 03:49:34;;;;;;;15.20;2.72;;;13.90;99.90;;;;;;5052830;28;20056;-84
2023/05/09 03:51:59;;;;;;;9.18;3.42;;;14.00;99.90;;;;;;5052671;28;20045;-84
2023/05/09 03:54:25;;;;;;;5.40;1.27;;;14.00;99.90;;;;;;5051583;28;20075;-84
2023/05/09 03:56:51;;;;;;;3.55;2.33;;;15.10;99.90;;;;;;5050304;28;20057;-84
2023/05/09 03:59:16;;;;;;;3.53;1.67;;;14.00;99.90;;;;;;5049214;28;20040;-83
2023/05/09 04:01:42;;;;;;;6.18;3.80;;;14.00;99.90;;;;;;5049880;28;20049;-83
2023/05/09 04:04:08;;;;;;;7.30;2.92;;;14.00;99.90;;;;;;5049783;28;20149;-85
2023/05/09 04:06:34;;;;;;;3.40;3.08;;;14.00;99.90;;;;;;5034638;28;20045;-84
2023/05/09 04:09:00;;;;;;;11.25;2.70;;;14.00;99.90;;;;;;5042241;28;20045;-83
2023/05/09 04:11:25;;;;;;;1.95;1.48;;;14.00;99.90;;;;;;5049720;28;20099;-83
2023/05/09 04:13:51;;;;;;;3.42;2.80;;;13.90;99.90;;;;;;5050941;28;20052;-84
2023/05/09 04:16:17;;;;;;;2.00;1.80;;;13.90;99.90;;;;;;5051557;28;20068;-83
2023/05/09 04:18:42;;;;;;;4.28;2.33;;;14.20;99.90;;;;;;5050772;28;20079;-83
2023/05/09 04:21:08;;;;;;;5.13;2.65;;;14.10;99.90;;;;;;5038364;28;20132;-83
2023/05/09 04:23:34;;;;;;;1.75;1.45;;;13.80;99.90;;;;;;5029112;28;20491;-83
2023/05/09 04:26:00;;;;;;;4.47;2.50;;;13.80;99.90;;;;;;5029231;28;20124;-83
2023/05/09 04:28:25;;;;;;;3.60;2.28;;;13.90;99.90;;;;;;5028039;28;20563;-85
2023/05/09 04:30:51;;;;;;;2.47;1.65;;;14.80;99.90;;;;;;5027974;28;20127;-84
2023/05/09 04:33:16;;;;;;;3.40;1.45;;;14.50;99.90;;;;;;5027264;28;20052;-82
2023/05/09 04:35:42;;;;;;;1.92;1.40;;;14.00;99.90;;;;;;5027965;28;20085;-83
2023/05/09 04:38:11;;;;;;;3.25;1.48;;;14.10;99.90;;;;;;5027369;28;20393;-84
2023/05/09 04:40:37;;;;;;;5.70;1.85;;;15.00;99.90;;;;;;5028329;28;20056;-83
2023/05/09 04:43:03;;;;;;;2.00;0.90;;;14.20;99.90;;;;;;5028005;28;20130;-83
2023/05/09 04:45:28;;;;;;;2.10;1.45;;;14.20;99.90;;;;;;5026308;28;20581;-84
2023/05/09 04:47:54;;;;;;;4.50;1.80;;;14.20;99.90;;;;;;5027561;28;20046;-84
2023/05/09 04:50:19;;;;;;;3.03;1.35;;;14.30;99.90;;;;;;5027554;28;20044;-84
2023/05/09 04:52:45;;;;;;;3.88;1.85;;;14.20;99.90;;;;;;5027262;28;20053;-84
2023/05/09 04:55:11;;;;;;;2.60;2.20;;;14.30;99.90;;;;;;5026862;28;20059;-84
2023/05/09 04:57:36;;;;;;;2.33;1.45;;;14.30;99.90;;;;;;5031105;28;20054;-83
2023/05/09 05:00:05;;;;;;;3.17;1.77;;;14.30;99.90;;;;;;5031650;28;20052;-83
2023/05/09 05:02:31;;;;;;;3.20;1.58;;;14.40;99.90;;;;;;5030439;28;20059;-83
2023/05/09 05:04:57;;;;;;;2.25;1.92;;;14.40;99.90;;;;;;5028576;28;20499;-84
2023/05/09 05:07:22;;;;;;;2.33;2.13;;;14.40;99.90;;;;;;5028623;28;20053;-85
2023/05/09 05:09:48;;;;;;;1.33;1.15;;;14.40;99.90;;;;;;5029595;28;20176;-84
2023/05/09 05:12:14;;;;;;;4.00;1.80;;;14.50;99.90;;;;;;5030093;28;20045;-84
2023/05/09 05:14:39;;;;;;;4.25;1.95;;;14.50;99.90;;;;;;5037955;28;20053;-84
2023/05/09 05:17:05;;;;;;;1.25;0.93;;;14.60;99.90;;;;;;5026748;28;20045;-84
2023/05/09 05:19:31;;;;;;;5.05;2.75;;;14.80;99.90;;;;;;5024344;28;20053;-83
2023/05/09 05:21:56;;;;;;;1.63;0.70;;;14.50;99.90;;;;;;5039735;28;20048;-84
2023/05/09 05:24:22;;;;;;;3.22;1.75;;;14.40;99.90;;;;;;5045932;28;20041;-84
2023/05/09 05:26:47;;;;;;;1.38;1.10;;;14.30;99.90;;;;;;5047414;28;20056;-84
2023/05/09 05:29:14;;;;;;;1.20;1.08;;;14.20;99.90;;;;;;5037685;28;20042;-83
2023/05/09 05:31:39;;;;;;;3.65;2.00;;;14.20;99.90;;;;;;5049820;28;20076;-84
2023/05/09 05:34:05;;;;;;;1.52;1.42;;;14.20;99.90;;;;;;5049069;28;20041;-84
2023/05/09 05:36:31;;;;;;;0.57;0.50;;;14.30;99.90;;;;;;5047041;28;20045;-83
2023/05/09 05:38:56;;;;;;;0.88;0.55;;;14.20;99.90;;;;;;5047846;28;20682;-83
2023/05/09 05:41:22;;;;;;;3.17;1.80;;;14.70;99.90;;;;;;5049513;28;20122;-83
2023/05/09 05:43:48;;;;;;;0.38;0.38;;;14.20;99.90;;;;;;5047931;28;20499;-83
2023/05/09 05:46:13;;;;;;;0.57;0.55;;;14.20;99.90;;;;;;5049208;28;20503;-84
2023/05/09 05:48:39;;;;;;;1.75;1.10;;;14.20;99.90;;;;;;5045752;28;20128;-84
2023/05/09 05:51:05;;;;;;;10.50;2.75;;;14.30;99.90;;;;;;5045543;28;20037;-83
2023/05/09 05:53:30;;;;;;;2.72;1.40;;;14.30;99.90;;;;;;5047794;28;20060;-84
2023/05/09 05:55:56;;;;;;;4.63;2.53;;;14.20;99.90;;;;;;5047089;28;20049;-83
2023/05/09 05:58:23;;;;;;;3.10;1.25;;;14.30;99.90;;;;;;5047520;28;20045;-84
2023/05/09 06:00:51;;;;;;;1.70;1.23;;;14.30;99.90;;;;;;5047767;28;20048;-84
2023/05/09 06:03:16;;;;;;;1.30;0.60;;;14.30;99.90;;;;;;5047610;28;20072;-84
2023/05/09 06:05:43;;;;;;;4.88;2.08;;;14.30;99.90;;;;;;5047085;28;20483;-84
2023/05/09 06:08:09;;;;;;;1.15;0.88;;;14.30;99.90;;;;;;5045294;28;20041;-84
2023/05/09 06:10:34;;;;;;;1.92;1.67;;;14.30;99.90;;;;;;5047270;28;20043;-84
2023/05/09 06:13:00;;;;;;;1.20;1.10;;;14.40;99.90;;;;;;5047575;28;20226;-85
2023/05/09 06:15:26;;;;;;;0.90;0.82;;;14.50;99.90;;;;;;5047041;28;20128;-85
2023/05/09 06:17:51;;;;;;;2.50;1.33;;;14.60;99.90;;;;;;5046537;28;20410;-83
2023/05/09 06:20:17;;;;;;;2.15;1.95;;;14.60;99.90;;;;;;5047069;28;20048;-84
2023/05/09 06:22:42;;;;;;;1.23;1.08;;;14.70;99.90;;;;;;5047253;28;20081;-83
2023/05/09 06:25:08;;;;;;;0.88;0.70;;;14.80;99.90;;;;;;5047008;28;20049;-84
2023/05/09 06:27:34;;;;;;;1.73;1.25;;;16.10;99.90;;;;;;5046733;28;20041;-84
2023/05/09 06:29:59;;;;;;;2.35;1.88;;;15.00;99.90;;;;;;5049207;28;20037;-84
2023/05/09 06:32:25;;;;;;;2.38;1.65;;;15.10;99.90;;;;;;5049629;28;20051;-85
2023/05/09 06:34:51;;;;;;;2.25;1.50;;;15.30;99.90;;;;;;5050206;28;20057;-83
2023/05/09 06:37:17;;;;;;;1.08;0.98;;;15.50;99.90;;;;;;5050912;28;20500;-83
2023/05/09 06:39:43;;;;;;;0.57;0.50;;;16.50;99.90;;;;;;5049374;28;20044;-84
2023/05/09 06:42:08;;;;;;;2.78;1.60;;;15.90;99.90;;;;;;5046664;28;20044;-84
2023/05/09 06:44:37;;;;;;;1.98;1.80;;;15.90;99.90;;;;;;5046755;28;20081;-84
2023/05/09 06:47:03;;;;;;;1.70;1.38;;;15.90;99.90;;;;;;5045402;28;20045;-84
2023/05/09 06:49:29;;;;;;;5.47;3.70;;;15.90;99.90;;;;;;5044708;28;20082;-84
2023/05/09 06:51:54;;;;;;;11.75;3.08;;;15.90;99.90;;;;;;5042708;28;20045;-84
2023/05/09 06:54:20;;;;;;;1.15;1.05;;;16.10;99.90;;;;;;5045064;28;20060;-84
2023/05/09 06:56:46;;;;;;;6.50;2.22;;;16.10;99.90;;;;;;5045232;28;20705;-85
2023/05/09 06:59:12;;;;;;;1.02;0.90;;;15.90;99.90;;;;;;5044937;28;20049;-84
2023/05/09 07:01:39;;;;;;;5.82;3.10;;;16.90;99.90;;;;;;5044115;28;20048;-83
2023/05/09 07:04:05;;;;;;;4.28;2.65;;;15.90;99.90;;;;;;5043472;28;20486;-85
2023/05/09 07:06:30;;;;;;;1.48;1.38;;;15.80;99.90;;;;;;5046521;28;20080;-85
2023/05/09 07:08:56;;;;;;;2.40;2.00;;;15.80;99.90;;;;;;5046544;28;20044;-85
2023/05/09 07:11:22;;;;;;;3.85;2.45;;;15.80;99.90;;;;;;5046251;28;20041;-85
2023/05/09 07:13:47;;;;;;;5.63;4.53;;;15.80;99.90;;;;;;5046356;28;20426;-85
2023/05/09 07:16:13;;;;;;;8.50;3.75;;;15.80;99.90;;;;;;5045664;28;20041;-83
2023/05/09 07:18:39;;;;;;;6.07;3.65;;;15.80;99.90;;;;;;5045854;28;20126;-84
2023/05/09 07:21:05;;;;;;;3.70;2.42;;;15.80;99.90;;;;;;5046344;28;20044;-85
2023/05/09 07:23:30;;;;;;;4.22;2.33;;;15.70;99.90;;;;;;5044909;28;20045;-84
2023/05/09 07:25:57;;;;;;;10.23;4.93;;;15.80;99.90;;;;;;5046125;28;20044;-84
2023/05/09 07:28:23;;;;;;;14.75;3.15;;;15.90;99.90;;;;;;5044082;28;20091;-84
2023/05/09 07:30:49;;;;;;;2.47;1.48;;;15.70;99.90;;;;;;5045815;28;20076;-84
2023/05/09 07:33:14;;;;;;;6.20;3.70;;;15.70;99.90;;;;;;5045372;28;20049;-84
2023/05/09 07:35:40;;;;;;;5.07;3.03;;;15.80;99.90;;;;;;5045057;28;20464;-85
2023/05/09 07:38:06;;;;;;;5.68;3.15;;;15.80;99.90;;;;;;5045120;28;20053;-84
2023/05/09 07:40:36;;;;;;;8.93;4.50;;;15.80;99.90;;;;;;5044632;28;20045;-85
2023/05/09 07:43:01;;;;;;;7.13;3.47;;;16.60;99.90;;;;;;5044997;28;20044;-85
2023/05/09 07:45:27;;;;;;;5.50;3.33;;;16.00;99.90;;;;;;5045430;28;20049;-84
2023/05/09 07:47:52;;;;;;;9.25;4.78;;;16.00;99.90;;;;;;5045289;28;20128;-84
2023/05/09 07:50:18;;;;;;;5.90;4.38;;;16.00;99.90;;;;;;5045489;28;20045;-84
2023/05/09 07:52:44;;;;;;;3.38;1.98;;;16.20;99.90;;;;;;5044729;28;20059;-84
2023/05/09 07:55:11;;;;;;;4.20;2.83;;;16.30;99.90;;;;;;5044078;28;20097;-84
2023/05/09 07:57:38;;;;;;;2.90;2.22;;;16.40;99.90;;;;;;5045203;28;20049;-84
2023/05/09 08:00:05;;;;;;;3.40;3.05;;;16.70;99.90;;;;;;5045159;28;20059;-84
2023/05/09 08:02:31;;;;;;;27.75;4.43;;;16.80;99.90;;;;;;5045535;28;20048;-84
2023/05/09 08:04:56;;;;;;;6.43;2.65;;;17.00;88.70;;;;;;5048714;28;20049;-85
2023/05/09 08:07:22;;;;;;;3.00;2.53;;;17.20;99.90;;;;;;5048661;28;20041;-84
2023/05/09 08:09:47;;;;;;;5.72;1.98;;;16.80;99.90;;;;;;5048835;28;20052;-84
2023/05/09 08:12:13;;;;;;;6.95;4.72;;;17.00;99.90;;;;;;5046791;28;20040;-84
2023/05/09 08:14:39;;;;;;;13.80;3.97;;;16.90;1.00;;;;;;5048110;28;20118;-84
2023/05/09 08:17:05;;;;;;;4.05;3.55;;;16.90;99.90;;;;;;5049413;28;20055;-84
2023/05/09 08:19:30;;;;;;;7.82;3.97;;;17.00;1.00;;;;;;5047465;28;20033;-85
2023/05/09 08:21:56;;;;;;;4.57;3.47;;;17.10;99.90;;;;;;5048015;28;20053;-84
2023/05/09 08:24:22;;;;;;;6.65;3.78;;;18.30;99.90;;;;;;5060873;28;20041;-85
2023/05/09 08:26:47;;;;;;;4.13;3.67;;;17.20;1.00;;;;;;5061870;28;20052;-84
2023/05/09 08:29:13;;;;;;;5.60;2.53;;;17.80;1.00;;;;;;5061414;28;20067;-85
2023/05/09 08:31:39;;;;;;;4.72;2.80;;;17.70;1.00;;;;;;5054806;28;20045;-83
2023/05/09 08:34:05;;;;;;;4.93;2.08;;;17.80;99.90;;;;;;5047195;28;20131;-84
2023/05/09 08:36:31;;;;;;;5.35;3.22;;;18.10;99.90;;;;;;5047046;28;20452;-84
2023/05/09 08:38:57;;;;;;;5.60;3.70;;;18.40;1.00;;;;;;5046231;28;20119;-84
2023/05/09 08:41:26;;;;;;;2.25;2.05;;;18.60;99.90;;;;;;5049103;28;20091;-83
2023/05/09 08:43:53;;;;;;;7.43;4.45;;;18.80;1.00;;;;;;5049171;28;20053;-83
2023/05/09 08:46:25;;;;;;;8.13;3.53;;;19.00;99.90;;;;;;5046737;28;20052;-84
2023/05/09 08:48:52;;;;;;;8.25;4.50;;;19.10;99.90;;;;;;5043161;28;20052;-84
2023/05/09 08:51:18;;;;;;;8.15;4.78;;;19.00;99.90;;;;;;5046005;28;20049;-83
2023/05/09 08:53:44;;;;;;;5.28;2.80;;;19.20;1.00;;;;;;5047360;28;20040;-83
2023/05/09 08:56:10;;;;;;;5.05;1.83;;;19.50;99.90;;;;;;5049757;28;20116;-83
2023/05/09 08:58:37;;;;;;;4.75;2.10;;;19.60;1.00;;;;;;5049916;28;20049;-84
2023/05/09 09:01:06;;;;;;;5.95;4.05;;;19.60;1.00;;;;;;5049872;28;20045;-84
2023/05/09 09:03:32;;;;;;;5.68;3.08;;;19.80;1.00;;;;;;5049947;28;20499;-83
2023/05/09 09:05:58;;;;;;;8.90;3.40;;;20.30;99.90;;;;;;5049763;28;20083;-84
2023/05/09 09:08:26;;;;;;;6.53;3.10;;;20.00;99.90;;;;;;5047787;28;20491;-83
2023/05/09 09:10:52;;;;;;;11.95;3.22;;;20.00;99.90;;;;;;5051835;28;20068;-84
2023/05/09 09:13:20;;;;;;;2.95;2.45;;;19.90;99.90;;;;;;5052242;28;20048;-83
2023/05/09 09:15:47;;;;;;;2.45;1.50;;;20.60;99.90;;;;;;5058562;28;20025;-84
2023/05/09 09:18:22;;;;;;;3.95;2.28;;;19.90;99.90;;;;;;5058881;28;20052;-84
2023/05/09 09:20:51;;;;;;;4.82;2.90;;;19.90;99.90;;;;;;5060307;28;20049;-84
2023/05/09 09:23:23;;;;;;;6.03;3.10;;;19.80;99.90;;;;;;5057339;28;20066;-84
2023/05/09 09:25:56;;;;;;;19.42;4.88;;;19.50;99.90;;;;;;5058748;28;20091;-83
2023/05/09 09:28:22;;;;;;;3.92;2.75;;;19.60;99.90;;;;;;5056969;28;20060;-84
2023/05/09 09:30:48;;;;;;;1.35;1.27;;;19.90;99.90;;;;;;5057826;28;20049;-83
2023/05/09 09:33:24;;;;;;;8.02;4.40;;;19.80;99.90;;;;;;5050526;28;20048;-83
2023/05/09 09:35:52;;;;;;;6.35;2.72;;;19.80;99.90;;;;;;5044697;28;20229;-83
2023/05/09 09:38:19;;;;;;;4.82;2.40;;;20.40;99.90;;;;;;5042532;28;20596;-83
2023/05/09 09:40:51;;;;;;;2.20;1.83;;;19.70;99.90;;;;;;5041781;28;20044;-84
2023/05/09 09:43:17;;;;;;;3.97;2.47;;;19.80;99.90;;;;;;5041500;28;20087;-83
2023/05/09 09:45:47;;;;;;;7.45;3.58;;;20.70;99.90;;;;;;5042796;28;20096;-83
2023/05/09 09:48:12;;;;;;;3.88;1.98;;;19.90;99.90;;;;;;5043031;28;20537;-84
2023/05/09 09:50:38;;;;;;;4.03;2.80;;;20.10;99.90;;;;;;5040750;28;20045;-83
2023/05/09 09:53:03;;;;;;;4.28;2.83;;;20.40;99.90;;;;;;5043167;28;20490;-83
2023/05/09 09:55:30;;;;;;;2.25;1.45;;;20.60;99.90;;;;;;5043737;28;20523;-83
2023/05/09 09:57:56;;;;;;;1.98;1.58;;;21.20;99.20;;;;;;5043537;28;20148;-83
2023/05/09 10:00:26;;;;;;;9.48;4.07;;;20.40;52.10;;;;;;5043516;28;20147;-84
2023/05/09 10:02:59;;;;;;;1.73;1.50;;;20.20;42.00;;;;;;5042944;28;20053;-84
2023/05/09 10:05:30;;;;;;;6.40;4.03;;;21.00;43.00;;;;;;5041859;28;20045;-84
2023/05/09 10:07:58;;;;;;;1.92;1.52;;;19.60;92.50;;;;;;5043631;28;20041;-84
2023/05/09 10:10:29;;;;;;;2.05;1.50;;;20.00;94.40;;;;;;5042036;28;20499;-84
2023/05/09 10:12:57;;;;;;;4.20;2.85;;;19.10;99.90;;;;;;5042776;28;20041;-84
2023/05/09 10:15:24;;;;;;;2.00;1.60;;;19.00;99.90;;;;;;5044488;28;20059;-85
2023/05/09 10:17:57;;;;;;;3.05;2.28;;;19.20;99.90;;;;;;5045485;28;20053;-84
2023/05/09 10:20:24;;;;;;;3.65;2.05;;;19.90;99.90;;;;;;5044728;28;20399;-83
2023/05/09 10:22:55;;;;;;;3.50;2.50;;;20.10;72.20;;;;;;5024180;28;20295;-84
2023/05/09 10:25:24;;;;;;;2.70;2.08;;;20.40;88.30;;;;;;5042678;28;20110;-84
2023/05/09 10:27:54;;;;;;;7.50;1.77;;;20.60;46.20;;;;;;5042285;28;20048;-84
2023/05/09 10:30:31;;;;;;;2.22;2.03;;;21.50;1.00;;;;;;5042099;28;20052;-84
2023/05/09 10:33:07;;;;;;;4.65;2.83;;;21.10;1.00;;;;;;5042211;28;20045;-84
2023/05/09 10:35:39;;;;;;;2.28;2.03;;;20.80;1.00;;;;;;5041957;28;20060;-84
2023/05/09 10:38:06;;;;;;;4.28;2.78;;;21.10;1.00;;;;;;5045132;28;20503;-84
2023/05/09 10:40:33;;;;;;;2.67;2.47;;;21.60;1.00;;;;;;5047399;28;20080;-84
2023/05/09 10:42:59;;;;;;;1.42;1.33;;;21.60;1.00;;;;;;5048437;28;20045;-84
2023/05/09 10:45:25;;;;;;;3.70;1.25;;;21.70;1.00;;;;;;5047992;28;20421;-84
2023/05/09 10:47:52;;;;;;;3.22;2.42;;;21.60;1.00;;;;;;5047106;28;20049;-84
2023/05/09 10:50:20;;;;;;;2.35;1.95;;;21.60;1.00;;;;;;5045229;28;20149;-84
2023/05/09 10:53:07;;;;;;;0.98;0.85;;;21.30;1.00;;;;;;5046398;28;20102;-80
2023/05/09 10:55:37;;;;;;;1.85;1.55;;;21.80;99.90;;;;;;5045842;28;20083;-86
2023/05/09 10:58:40;;;;;;;1.13;1.02;;;21.40;99.90;;;;;;5044090;28;20056;-84
2023/05/09 11:01:06;;;;;;;2.45;2.22;;;21.60;99.90;;;;;;5046570;28;20053;-85
2023/05/09 11:03:51;;;;;;;3.40;1.98;;;21.80;99.90;;;;;;5045469;28;20045;-85
2023/05/09 11:06:47;;;;;;;1.25;1.13;;;22.20;99.90;;;;;;5046143;28;20068;-84
2023/05/09 11:09:37;;;;;;;1.55;1.38;;;22.50;99.90;;;;;;5045552;28;20048;-84
2023/05/09 11:12:14;;;;;;;2.00;1.70;;;22.60;99.90;;;;;;5045298;28;20080;-84
2023/05/09 11:14:41;;;;;;;3.38;1.52;;;22.70;99.90;;;;;;5046193;28;20573;-85
2023/05/09 11:17:12;;;;;;;3.28;2.60;;;22.70;99.90;;;;;;5046720;28;20041;-84
2023/05/09 11:19:59;;;;;;;4.20;1.52;;;22.60;99.90;;;;;;5046437;28;20055;-85
2023/05/09 11:22:31;;;;;;;2.25;1.23;;;22.20;99.90;;;;;;5045975;28;20033;-83
2023/05/09 11:25:07;;;;;;;1.23;0.93;;;22.10;99.90;;;;;;5043579;28;20067;-85
2023/05/09 11:27:45;;;;;;;1.17;1.08;;;22.00;99.90;;;;;;5046342;28;20047;-84
2023/05/09 11:30:13;;;;;;;1.95;1.75;;;21.80;99.90;;;;;;5044161;28;20102;-84
2023/05/09 11:32:45;;;;;;;2.55;1.60;;;21.60;99.90;;;;;;5043615;28;20080;-84
2023/05/09 11:35:14;;;;;;;3.35;1.85;;;21.70;99.90;;;;;;5042396;28;20045;-84
2023/05/09 11:37:53;;;;;;;2.67;1.58;;;22.00;99.90;;;;;;5044081;28;20478;-84
2023/05/09 11:40:23;;;;;;;3.22;1.55;;;21.80;99.90;;;;;;5043766;28;20073;-86
2023/05/09 11:42:54;;;;;;;3.22;1.92;;;22.50;99.90;;;;;;5028711;28;20119;-83
2023/05/09 11:45:21;;;;;;;3.53;2.08;;;21.90;99.90;;;;;;5023374;28;20071;-84
2023/05/09 11:47:48;;;;;;;1.10;1.00;;;21.70;99.90;;;;;;5024312;28;20041;-84
2023/05/09 11:50:15;;;;;;;1.75;1.40;;;21.80;99.90;;;;;;5036408;28;20053;-84
2023/05/09 11:52:42;;;;;;;2.05;1.70;;;21.90;99.90;;;;;;5031044;28;20057;-84
2023/05/09 11:55:12;;;;;;;1.40;1.25;;;21.80;99.90;;;;;;5025995;28;20171;-84
2023/05/09 11:57:42;;;;;;;1.15;0.82;;;21.60;99.90;;;;;;5026864;28;20269;-84
2023/05/09 12:00:09;;;;;;;1.83;1.58;;;21.40;99.90;;;;;;5025058;28;20049;-85
2023/05/09 12:02:35;;;;;;;1.45;1.35;;;20.90;99.90;;;;;;5037620;28;20055;-84
2023/05/09 12:05:12;;;;;;;2.63;1.27;;;20.70;99.90;;;;;;5047886;28;20053;-84
2023/05/09 12:07:38;;;;;;;2.10;1.48;;;20.70;99.90;;;;;;5048080;28;20048;-84
2023/05/09 12:10:06;;;;;;;1.98;1.83;;;20.80;99.90;;;;;;5046885;28;20045;-84
2023/05/09 12:12:40;;;;;;;2.47;1.45;;;21.00;99.90;;;;;;5036250;28;20173;-83
2023/05/09 12:15:07;;;;;;;3.03;1.70;;;21.10;99.90;;;;;;5026187;28;20500;-84
2023/05/09 12:17:36;;;;;;;1.92;1.70;;;21.40;99.90;;;;;;5041123;28;20055;-84
2023/05/09 12:20:06;;;;;;;2.40;1.98;;;21.60;99.90;;;;;;5046745;28;20041;-85
2023/05/09 12:22:32;;;;;;;4.57;2.97;;;21.70;99.90;;;;;;5044280;28;20084;-84
2023/05/09 12:25:06;;;;;;;8.07;1.92;;;21.40;99.90;;;;;;5045899;28;20395;-84
2023/05/09 12:27:33;;;;;;;8.13;3.22;;;21.70;99.90;;;;;;5045974;28;20176;-85
2023/05/09 12:30:14;;;;;;;5.00;2.90;;;21.20;99.90;;;;;;5044069;28;20162;-83
2023/05/09 12:32:41;;;;;;;2.55;2.35;;;21.10;99.90;;;;;;5046986;28;20041;-84
2023/05/09 12:35:09;;;;;;;5.28;3.35;;;20.90;99.90;;;;;;5049231;28;20059;-83
2023/05/09 12:37:35;;;;;;;2.97;2.20;;;20.90;99.90;;;;;;5047464;28;20063;-84
2023/05/09 12:40:05;;;;;;;4.45;2.65;;;20.90;99.90;;;;;;5046803;28;20122;-84
2023/05/09 12:42:34;;;;;;;5.55;2.90;;;20.80;99.90;;;;;;5048609;28;20067;-84
2023/05/09 12:45:01;;;;;;;2.85;1.90;;;21.00;1.00;;;;;;5046607;28;20079;-85
2023/05/09 12:47:31;;;;;;;3.40;2.53;;;21.30;1.00;;;;;;5044429;28;20045;-83
2023/05/09 12:50:02;;;;;;;5.03;2.67;;;21.20;99.90;;;;;;5048005;28;20049;-85